Gary Chicago International Airport
KGYY : now visible

Airfield :











YOU CAN JOIN US ON...

 
LOGIN :

Register | Disclaimer

   EN    FR    IT 

 









Legend :    VFR   Marginal VFR   IFR   Intensive IFR   Very Intensive IFR
Visi :
Ceiling :
>= 8 km
>= 3000ft
5 to 8 km
1000 to 3000 ft
1500m to 5 km
500 to 1000 ft
800 to 1500m
200 to 500 ft
< 800m
< 200 ft
Symbols :   Thunderstorms  Fog  Heavy snow  Heavy precipitations  Wind > 20 kt







- Airport Elevation : 591 ft
- IATA code : GYY


KGYY - Gary Chicago International

CURRENT METAR :
  • 162145Z 35008KT 7SM OVC005 21/19 A3012

EXPIRED METARs :
  • 162045Z 36010KT 7SM OVC003 21/19 A3012
  • 161945Z 00000KT 7SM OVC005 22/20 A3012

TAF KGYY
Valid from the 16 at 21:00 until the 17 at 18:00 UTC


162110Z 1621/1718 01009KT P6SM BKN004
FM162300 02006KT P6SM SCT005
FM170300 03005KT 6SM BR BKN006
FM170800 05004KT 4SM BR BKN006
FM171000 07004KT 4SM BR BKN007
FM171400 11004KT P6SM BKN035
No reported NOTAMs for that airfield.



MET'MAP, your aeronautical weather chart ! - Copyright ORBIFLY December 2007 - Disclaimer

ORBIFLY MET'MAP TEAM :

Programming & Development : Alexandra Zaïnal
Concept & Development : Baudouin d'Aumeries
Co-Development & Prog : Marc-Olivier Méhu
Technical & hardware support : Manuel Goepfert

Contact : metmap@orbifly.com




SOURCES & CREDITS :

   NOAA       Earth
Advisory